createdAt,value
2018-11-28T00:00:00.654Z,47.93
2018-11-28T00:02:35.146Z,49.03
2018-11-28T00:05:11.638Z,54.27
2018-11-28T00:07:46.029Z,52.90
2018-11-28T00:10:20.410Z,48.05
2018-11-28T00:12:56.125Z,49.23
2018-11-28T00:15:30.639Z,50.28
2018-11-28T00:18:05.092Z,54.05
2018-11-28T00:20:39.620Z,53.08
2018-11-28T00:23:14.094Z,52.20
2018-11-28T00:25:48.490Z,48.33
2018-11-28T00:28:23.003Z,56.02
2018-11-28T00:30:57.442Z,45.52
2018-11-28T00:33:32.094Z,54.08
2018-11-28T00:36:09.521Z,46.92
2018-11-28T00:38:44.147Z,55.23
2018-11-28T00:41:18.700Z,52.75
2018-11-28T00:43:53.113Z,50.50
2018-11-28T00:46:28.703Z,49.93
2018-11-28T00:49:03.049Z,57.00
2018-11-28T00:51:37.478Z,50.03
2018-11-28T00:54:12.250Z,48.78
2018-11-28T00:56:46.651Z,53.35
2018-11-28T00:59:20.957Z,58.87
2018-11-28T01:01:55.845Z,53.33
2018-11-28T01:04:30.403Z,56.50
2018-11-28T01:07:05.685Z,55.58
2018-11-28T01:09:40.063Z,50.33
2018-11-28T01:12:14.439Z,49.35
2018-11-28T01:14:48.859Z,47.48
2018-11-28T01:17:23.032Z,52.33
2018-11-28T01:19:57.501Z,54.27
2018-11-28T01:22:32.000Z,57.03
2018-11-28T01:25:09.080Z,49.42
2018-11-28T01:27:44.190Z,50.30
2018-11-28T01:30:24.524Z,54.27
2018-11-28T01:32:58.789Z,53.15
2018-11-28T01:35:33.126Z,45.48
2018-11-28T01:38:07.596Z,54.27
2018-11-28T01:40:42.421Z,56.37
2018-11-28T01:43:17.032Z,56.53
2018-11-28T01:45:51.623Z,50.67
2018-11-28T01:48:26.147Z,52.20
2018-11-28T01:51:00.759Z,58.98
2018-11-28T01:53:35.673Z,57.23
2018-11-28T01:56:10.691Z,53.25
2018-11-28T01:58:45.013Z,54.25
2018-11-28T02:01:19.714Z,50.03
2018-11-28T02:03:54.702Z,55.92
2018-11-28T02:06:29.412Z,51.68
2018-11-28T02:09:05.987Z,54.05
2018-11-28T02:11:40.430Z,51.95
2018-11-28T02:14:14.842Z,58.83
2018-11-28T02:16:49.204Z,60.30
2018-11-28T02:19:23.689Z,54.60
2018-11-28T02:21:58.313Z,59.53
2018-11-28T02:24:32.911Z,53.23
2018-11-28T02:27:07.503Z,54.77
2018-11-28T02:29:42.103Z,54.23
2018-11-28T02:32:16.485Z,53.78
2018-11-28T02:34:50.913Z,48.83
2018-11-28T02:37:25.272Z,56.20
2018-11-28T02:40:01.199Z,50.08
2018-11-28T02:42:35.876Z,60.70
2018-11-28T02:45:15.399Z,55.08
2018-11-28T02:47:50.500Z,56.68
2018-11-28T02:50:24.873Z,48.63
2018-11-28T02:52:59.480Z,57.58
2018-11-28T02:55:34.168Z,51.10
2018-11-28T02:58:08.655Z,53.40
2018-11-28T03:00:44.099Z,51.25
2018-11-28T03:03:18.432Z,48.60
2018-11-28T03:05:52.731Z,49.77
2018-11-28T03:08:27.020Z,46.68
2018-11-28T03:11:01.260Z,47.58
2018-11-28T03:13:35.618Z,49.60
2018-11-28T03:16:24.539Z,47.80
2018-11-28T03:18:59.006Z,44.95
2018-11-28T03:21:33.221Z,50.00
2018-11-28T03:24:07.507Z,51.65
2018-11-28T03:26:42.157Z,46.50
2018-11-28T03:29:16.478Z,46.58
2018-11-28T03:31:51.900Z,46.08
2018-11-28T03:34:26.261Z,45.45
2018-11-28T03:37:00.761Z,48.92
2018-11-28T03:39:35.347Z,40.92
2018-11-28T03:42:09.784Z,41.28
2018-11-28T03:44:44.094Z,46.60
2018-11-28T03:47:19.297Z,51.70
2018-11-28T03:49:54.394Z,53.87
2018-11-28T03:52:28.793Z,43.23
2018-11-28T03:55:03.162Z,42.70
2018-11-28T03:57:37.546Z,42.23
2018-11-28T04:00:15.343Z,47.58
2018-11-28T04:02:50.214Z,42.78
2018-11-28T04:05:24.687Z,42.62
2018-11-28T04:07:59.025Z,44.63
2018-11-28T04:10:33.294Z,46.28
2018-11-28T04:13:08.178Z,45.23
2018-11-28T04:15:42.811Z,45.03
2018-11-28T04:18:17.220Z,47.13
2018-11-28T04:20:51.502Z,42.83
2018-11-28T04:23:26.105Z,49.00
2018-11-28T04:26:00.734Z,46.35
2018-11-28T04:28:35.685Z,48.98
2018-11-28T04:31:09.973Z,42.60
2018-11-28T04:33:44.283Z,46.18
2018-11-28T04:36:18.672Z,49.20
2018-11-28T04:38:53.592Z,52.62
2018-11-28T04:41:28.029Z,45.90
2018-11-28T04:44:02.378Z,42.08
2018-11-28T04:46:36.680Z,44.93
2018-11-28T04:49:12.293Z,49.05
2018-11-28T04:51:46.689Z,39.78
2018-11-28T04:54:21.031Z,47.30
2018-11-28T04:56:57.058Z,41.73
2018-11-28T04:59:31.255Z,44.48
2018-11-28T05:02:06.576Z,45.65
2018-11-28T05:04:40.998Z,51.00
2018-11-28T05:07:26.694Z,35.80
2018-11-28T05:10:01.052Z,38.98
2018-11-28T05:12:35.282Z,52.23
2018-11-28T05:15:18.611Z,51.90
2018-11-28T05:17:53.705Z,51.30
2018-11-28T05:20:30.623Z,49.25
2018-11-28T05:23:06.122Z,53.40
2018-11-28T05:25:40.409Z,52.83
2018-11-28T05:28:15.887Z,55.03
2018-11-28T05:30:50.422Z,57.45
2018-11-28T05:33:24.820Z,60.60
2018-11-28T05:35:59.308Z,55.75
2018-11-28T05:38:33.651Z,56.75
2018-11-28T05:41:08.390Z,59.80
2018-11-28T05:43:42.810Z,47.75
2018-11-28T05:46:17.232Z,56.77
2018-11-28T05:48:51.796Z,57.08
2018-11-28T05:51:26.161Z,52.20
2018-11-28T05:54:00.533Z,59.58
2018-11-28T05:56:35.041Z,59.67
2018-11-28T05:59:09.600Z,63.20
2018-11-28T06:01:44.026Z,63.68
2018-11-28T06:04:18.372Z,58.80
2018-11-28T06:06:52.881Z,55.33
2018-11-28T06:09:27.315Z,55.67
2018-11-28T06:12:01.564Z,55.12
2018-11-28T06:14:37.939Z,58.83
2018-11-28T06:17:12.458Z,53.40
2018-11-28T06:19:46.939Z,47.27
2018-11-28T06:22:22.131Z,63.48
2018-11-28T06:24:56.568Z,63.63
2018-11-28T06:27:32.528Z,49.73
2018-11-28T06:30:09.303Z,57.67
2018-11-28T06:32:44.008Z,55.08
2018-11-28T06:35:18.544Z,54.23
2018-11-28T06:37:52.911Z,53.83
2018-11-28T06:40:27.503Z,59.58
2018-11-28T06:43:02.179Z,48.78
2018-11-28T06:45:36.768Z,57.25
2018-11-28T06:48:11.106Z,52.90
2018-11-28T06:50:45.464Z,57.83
2018-11-28T06:53:25.214Z,53.65
2018-11-28T06:56:01.018Z,56.18
2018-11-28T06:58:37.864Z,57.50
2018-11-28T07:01:12.346Z,49.03
2018-11-28T07:03:46.871Z,51.95
2018-11-28T07:06:22.267Z,52.48
2018-11-28T07:08:58.043Z,58.87
2018-11-28T07:11:32.511Z,56.95
2018-11-28T07:14:08.863Z,65.52
2018-11-28T07:16:44.573Z,61.42
2018-11-28T07:19:21.291Z,59.90
2018-11-28T07:21:56.688Z,61.45
2018-11-28T07:24:31.419Z,58.78
2018-11-28T07:27:06.700Z,54.18
2018-11-28T07:29:41.750Z,53.05
2018-11-28T07:32:17.917Z,52.67
2018-11-28T07:34:52.950Z,52.98
2018-11-28T07:37:27.516Z,57.17
2018-11-28T07:40:02.206Z,53.95
2018-11-28T07:42:36.667Z,49.48
2018-11-28T07:45:12.062Z,46.53
2018-11-28T07:47:46.782Z,56.50
2018-11-28T07:50:22.628Z,58.35
2018-11-28T07:52:58.608Z,60.10
2018-11-28T07:55:33.275Z,52.90
2018-11-28T07:58:08.096Z,55.92
2018-11-28T08:00:42.583Z,55.00
2018-11-28T08:03:17.778Z,47.20
2018-11-28T08:05:55.366Z,57.70
2018-11-28T08:08:36.844Z,48.90
2018-11-28T08:11:22.064Z,44.25
2018-11-28T08:14:01.664Z,52.95
2018-11-28T08:16:39.455Z,58.52
2018-11-28T08:19:24.070Z,46.65
2018-11-28T08:22:03.794Z,51.23
2018-11-28T08:24:41.823Z,43.90
2018-11-28T08:27:21.631Z,46.53
2018-11-28T08:32:45.619Z,49.38
2018-11-28T08:35:24.105Z,39.98
2018-11-28T08:38:00.919Z,47.67
2018-11-28T08:40:36.703Z,44.03
2018-11-28T08:43:14.058Z,44.93
2018-11-28T08:45:50.445Z,51.83
2018-11-28T08:48:26.526Z,46.75
2018-11-28T08:51:04.115Z,47.27
2018-11-28T08:53:40.660Z,47.48
2018-11-28T08:56:22.051Z,47.65
2018-11-28T08:58:57.959Z,45.73
2018-11-28T09:01:32.365Z,47.93
2018-11-28T09:04:08.064Z,49.90
2018-11-28T09:06:45.319Z,52.30
2018-11-28T09:09:21.085Z,50.45
2018-11-28T09:11:55.501Z,47.43
2018-11-28T09:14:31.613Z,48.38
2018-11-28T09:17:06.991Z,48.40
2018-11-28T09:19:42.325Z,47.40
2018-11-28T09:22:18.257Z,47.38
2018-11-28T09:24:54.640Z,54.65
2018-11-28T09:27:35.763Z,45.78
2018-11-28T09:30:17.134Z,42.65
2018-11-28T09:32:51.782Z,45.50
2018-11-28T09:35:30.214Z,48.38
2018-11-28T09:38:06.253Z,44.98
2018-11-28T09:40:42.107Z,50.80
2018-11-28T09:43:17.608Z,47.95
2018-11-28T09:45:54.888Z,47.35
2018-11-28T09:48:30.507Z,51.20
2018-11-28T09:51:07.174Z,45.92
2018-11-28T09:53:42.186Z,46.13
2018-11-28T09:56:17.955Z,45.67
2018-11-28T09:58:53.493Z,51.37
2018-11-28T10:01:29.497Z,43.17
2018-11-28T10:04:04.497Z,47.35
2018-11-28T10:06:42.353Z,47.93
2018-11-28T10:12:20.547Z,49.20
2018-11-28T10:15:01.367Z,45.70
2018-11-28T10:17:45.597Z,41.25
2018-11-28T10:20:21.699Z,46.35
2018-11-28T10:22:59.464Z,46.37
2018-11-28T10:25:37.811Z,43.13
2018-11-28T10:31:14.228Z,54.33
2018-11-28T10:33:56.015Z,46.68
2018-11-28T10:36:39.402Z,46.18
2018-11-28T10:39:18.748Z,45.63
2018-11-28T10:42:13.170Z,48.20
2018-11-28T10:44:59.027Z,50.03
2018-11-28T10:47:41.525Z,50.92
2018-11-28T10:50:21.459Z,42.08
2018-11-28T10:53:31.664Z,47.27
2018-11-28T10:56:07.626Z,42.05
2018-11-28T10:58:44.640Z,52.90
2018-11-28T11:01:24.468Z,49.73
2018-11-28T11:04:05.071Z,52.08
2018-11-28T11:06:46.417Z,49.27
2018-11-28T11:09:26.319Z,52.40
2018-11-28T11:12:07.438Z,46.53
2018-11-28T11:14:46.210Z,46.48
2018-11-28T11:17:24.372Z,47.20
2018-11-28T11:20:00.295Z,48.05
2018-11-28T11:22:35.628Z,42.40
2018-11-28T11:25:11.536Z,45.67
2018-11-28T11:27:46.729Z,52.65
2018-11-28T11:30:24.904Z,52.43
2018-11-28T11:35:40.969Z,51.50
2018-11-28T11:43:49.077Z,47.40
2018-11-28T11:46:27.957Z,44.80
2018-11-28T11:49:11.731Z,44.55
2018-11-28T11:54:33.226Z,40.90
2018-11-28T11:57:15.078Z,47.53
2018-11-28T11:59:53.314Z,48.50
2018-11-28T12:02:31.385Z,44.48
2018-11-28T12:05:10.243Z,47.75
2018-11-28T12:07:46.163Z,54.83
2018-11-28T12:10:22.963Z,43.25
2018-11-28T12:13:07.296Z,41.20
2018-11-28T12:15:45.691Z,37.25
2018-11-28T12:18:23.274Z,49.90
2018-11-28T12:21:08.245Z,50.05
2018-11-28T12:23:53.517Z,44.38
2018-11-28T12:29:24.407Z,44.60
2018-11-28T12:34:52.085Z,47.33
2018-11-28T12:37:28.245Z,42.13
2018-11-28T12:40:10.110Z,39.63
2018-11-28T12:42:51.537Z,47.03
2018-11-28T12:45:31.864Z,41.23
2018-11-28T12:48:08.643Z,37.08
2018-11-28T12:50:50.004Z,37.40
2018-11-28T12:53:32.178Z,41.10
2018-11-28T12:56:15.803Z,45.30
2018-11-28T12:58:55.635Z,36.17
2018-11-28T13:01:32.979Z,42.45
2018-11-28T13:04:14.109Z,39.48
2018-11-28T13:06:51.175Z,38.53
2018-11-28T13:09:29.944Z,37.67
2018-11-28T13:12:09.248Z,43.33
2018-11-28T13:14:49.632Z,36.53
2018-11-28T13:17:32.499Z,41.63
2018-11-28T13:20:09.943Z,36.75
2018-11-28T13:22:51.432Z,37.70
2018-11-28T13:25:31.993Z,40.58
2018-11-28T13:28:13.930Z,34.03
2018-11-28T13:33:33.847Z,38.80
2018-11-28T13:36:09.594Z,34.75
2018-11-28T13:38:50.295Z,35.68
2018-11-28T13:44:08.207Z,37.20
2018-11-28T13:46:48.161Z,32.63
2018-11-28T13:49:22.833Z,34.25
2018-11-28T13:51:58.039Z,36.77
2018-11-28T13:55:36.455Z,31.77
2018-11-28T13:57:14.157Z,37.03
2018-11-28T13:59:49.347Z,34.98
2018-11-28T14:02:24.326Z,30.95
2018-11-28T14:04:58.670Z,36.50
2018-11-28T14:07:33.159Z,38.23
2018-11-28T14:10:11.786Z,31.62
2018-11-28T14:12:46.183Z,35.88
2018-11-28T14:15:21.700Z,36.95
2018-11-28T14:18:01.809Z,31.45
2018-11-28T14:20:36.187Z,37.10
2018-11-28T14:23:10.715Z,37.30
2018-11-28T14:25:45.277Z,34.15
2018-11-28T14:28:19.839Z,30.25
2018-11-28T14:30:54.390Z,37.88
2018-11-28T14:33:28.775Z,35.25
2018-11-28T14:36:03.708Z,36.58
2018-11-28T14:38:39.223Z,43.23
2018-11-28T14:41:13.668Z,34.15
2018-11-28T14:43:48.023Z,35.48
2018-11-28T14:46:22.554Z,36.83
2018-11-28T14:48:57.530Z,37.42
2018-11-28T14:51:32.216Z,35.28
2018-11-28T14:54:06.798Z,38.42
2018-11-28T14:56:41.307Z,33.55
2018-11-28T14:59:15.702Z,40.70
2018-11-28T15:01:52.335Z,33.70
2018-11-28T15:04:26.911Z,38.65
2018-11-28T15:07:02.124Z,42.35
2018-11-28T15:09:42.150Z,39.55
2018-11-28T15:12:16.834Z,47.23
2018-11-28T15:14:51.448Z,41.83
2018-11-28T15:17:26.131Z,44.38
2018-11-28T15:20:00.396Z,45.58
2018-11-28T15:22:34.817Z,42.75
2018-11-28T15:25:10.302Z,41.45
2018-11-28T15:27:44.787Z,41.48
2018-11-28T15:30:19.055Z,41.63
2018-11-28T15:32:53.496Z,45.15
2018-11-28T15:35:28.098Z,42.88
2018-11-28T15:38:02.466Z,43.05
2018-11-28T15:40:37.048Z,43.17
2018-11-28T15:43:11.415Z,48.45
2018-11-28T15:45:46.129Z,51.80
2018-11-28T15:48:21.223Z,45.20
2018-11-28T15:50:55.559Z,46.98
2018-11-28T15:53:30.388Z,45.40
2018-11-28T15:56:05.506Z,51.10
2018-11-28T15:58:45.010Z,50.52
2018-11-28T16:01:19.520Z,52.50
2018-11-28T16:03:53.971Z,46.70
2018-11-28T16:06:28.863Z,50.03
2018-11-28T16:09:03.995Z,47.17
2018-11-28T16:11:38.624Z,45.20
2018-11-28T16:14:12.975Z,47.75
2018-11-28T16:16:47.595Z,46.30
2018-11-28T16:19:27.004Z,43.55
2018-11-28T16:22:01.356Z,46.02
2018-11-28T16:24:42.593Z,46.37
2018-11-28T16:27:18.387Z,45.73
2018-11-28T16:29:55.915Z,47.98
2018-11-28T16:32:32.228Z,42.15
2018-11-28T16:35:08.449Z,45.17
2018-11-28T16:37:42.941Z,45.43
2018-11-28T16:40:17.301Z,45.05
2018-11-28T16:42:51.776Z,39.73
2018-11-28T16:45:26.314Z,42.73
2018-11-28T16:48:00.757Z,42.10
2018-11-28T16:50:35.366Z,38.73
2018-11-28T16:53:10.175Z,46.23
2018-11-28T16:55:45.914Z,52.23
2018-11-28T16:58:21.169Z,41.08
2018-11-28T17:00:55.651Z,44.65
2018-11-28T17:03:30.264Z,43.33
2018-11-28T17:06:05.789Z,40.80
2018-11-28T17:08:41.029Z,40.20
2018-11-28T17:11:16.259Z,43.50
2018-11-28T17:13:50.996Z,35.48
2018-11-28T17:19:20.393Z,41.35
2018-11-28T17:21:58.413Z,39.58
2018-11-28T17:24:34.739Z,37.30
2018-11-28T17:27:10.415Z,40.95
2018-11-28T17:29:45.944Z,38.78
2018-11-28T17:32:21.995Z,43.05
2018-11-28T17:34:56.527Z,39.00
2018-11-28T17:37:31.470Z,36.42
2018-11-28T17:40:11.508Z,35.08
2018-11-28T17:42:47.817Z,36.40
2018-11-28T17:45:22.895Z,38.42
2018-11-28T17:47:57.644Z,39.78
2018-11-28T17:50:32.195Z,34.45
2018-11-28T17:53:18.381Z,33.10
2018-11-28T17:55:54.251Z,42.80
2018-11-28T17:58:29.860Z,41.37
2018-11-28T18:01:04.323Z,37.55
2018-11-28T18:03:45.437Z,36.50
2018-11-28T18:06:19.907Z,41.75
2018-11-28T18:08:54.495Z,35.83
2018-11-28T18:11:29.075Z,34.60
2018-11-28T18:14:04.355Z,39.45
2018-11-28T18:16:39.982Z,37.10
2018-11-28T18:19:14.644Z,35.40
2018-11-28T18:21:49.141Z,32.23
2018-11-28T18:24:25.649Z,39.90
2018-11-28T18:27:00.498Z,37.10
2018-11-28T18:29:36.676Z,38.73
2018-11-28T18:32:12.548Z,40.85
2018-11-28T18:34:47.324Z,36.13
2018-11-28T18:37:24.299Z,40.20
2018-11-28T18:39:56.877Z,33.55
2018-11-28T18:42:32.093Z,39.42
2018-11-28T18:45:13.853Z,33.30
2018-11-28T18:47:49.413Z,33.35
2018-11-28T18:50:24.387Z,38.60
2018-11-28T18:52:59.510Z,32.23
2018-11-28T18:55:34.751Z,38.00
2018-11-28T18:58:10.287Z,40.03
2018-11-28T19:00:44.760Z,39.23
2018-11-28T19:03:19.167Z,35.90
2018-11-28T19:05:53.548Z,36.48
2018-11-28T19:08:28.108Z,32.95
2018-11-28T19:11:05.201Z,37.88
2018-11-28T19:13:40.685Z,35.90
2018-11-28T19:16:14.759Z,35.08
2018-11-28T19:18:49.099Z,39.67
2018-11-28T19:21:23.341Z,34.65
2018-11-28T19:23:57.711Z,30.95
2018-11-28T19:26:31.890Z,38.33
2018-11-28T19:29:07.540Z,31.93
2018-11-28T19:31:41.811Z,30.35
2018-11-28T19:34:18.325Z,39.58
2018-11-28T19:36:51.897Z,34.98
2018-11-28T19:39:26.544Z,36.53
2018-11-28T19:42:01.727Z,39.55
2018-11-28T19:44:37.616Z,33.48
2018-11-28T19:47:12.160Z,31.90
2018-11-28T19:49:46.568Z,33.88
2018-11-28T19:52:22.016Z,36.30
2018-11-28T19:54:56.179Z,34.08
2018-11-28T19:57:30.422Z,41.65
2018-11-28T20:00:09.527Z,35.45
2018-11-28T20:02:44.631Z,29.05
2018-11-28T20:05:19.812Z,36.58
2018-11-28T20:07:54.033Z,35.03
2018-11-28T20:10:28.312Z,37.20
2018-11-28T20:13:02.631Z,30.50
2018-11-28T20:15:37.787Z,35.13
2018-11-28T20:18:12.176Z,35.55
2018-11-28T20:20:46.976Z,32.58
2018-11-28T20:23:21.916Z,29.25
2018-11-28T20:25:56.336Z,30.23
2018-11-28T20:28:30.571Z,33.60
2018-11-28T20:31:05.378Z,28.92
2018-11-28T20:33:39.661Z,36.10
2018-11-28T20:36:13.944Z,30.15
2018-11-28T20:38:48.384Z,31.57
2018-11-28T20:41:24.317Z,35.40
2018-11-28T20:43:59.533Z,34.27
2018-11-28T20:46:33.728Z,32.78
2018-11-28T20:49:11.059Z,34.65
2018-11-28T20:51:46.216Z,36.05
2018-11-28T20:54:20.595Z,37.25
2018-11-28T20:56:55.087Z,34.40
2018-11-28T20:59:29.507Z,39.67
2018-11-28T21:02:04.211Z,32.67
2018-11-28T21:04:38.530Z,31.75
2018-11-28T21:07:12.792Z,36.05
2018-11-28T21:09:52.424Z,35.13
2018-11-28T21:12:28.160Z,31.17
2018-11-28T21:15:02.753Z,31.05
2018-11-28T21:17:37.046Z,39.27
2018-11-28T21:20:15.795Z,33.65
2018-11-28T21:22:52.672Z,37.67
2018-11-28T21:25:27.759Z,38.08
2018-11-28T21:28:02.187Z,30.35
2018-11-28T21:30:37.437Z,30.20
2018-11-28T21:33:13.233Z,32.75
2018-11-28T21:35:50.336Z,37.45
2018-11-28T21:38:25.180Z,36.17
2018-11-28T21:41:01.702Z,35.50
2018-11-28T21:43:36.866Z,30.05
2018-11-28T21:46:11.401Z,37.80
2018-11-28T21:48:45.739Z,28.05
2018-11-28T21:51:20.634Z,36.68
2018-11-28T21:53:55.112Z,35.50
2018-11-28T21:56:29.502Z,32.33
2018-11-28T21:59:05.950Z,31.80
2018-11-28T22:01:41.228Z,31.37
2018-11-28T22:04:16.272Z,33.18
2018-11-28T22:06:50.536Z,34.88
2018-11-28T22:09:25.027Z,31.33
2018-11-28T22:11:59.947Z,35.40
2018-11-28T22:14:36.254Z,34.70
2018-11-28T22:17:11.958Z,34.73
2018-11-28T22:19:46.402Z,34.43
2018-11-28T22:22:20.890Z,35.17
2018-11-28T22:24:55.326Z,33.83
2018-11-28T22:27:30.774Z,35.33
2018-11-28T22:30:06.906Z,33.70
2018-11-28T22:32:41.255Z,33.23
2018-11-28T22:35:15.612Z,31.52
2018-11-28T22:37:50.382Z,32.13
2018-11-28T22:40:28.912Z,34.92
2018-11-28T22:43:03.258Z,34.25
2018-11-28T22:45:37.654Z,41.77
2018-11-28T22:48:12.034Z,40.10
2018-11-28T22:50:46.612Z,35.23
2018-11-28T22:53:22.043Z,35.35
2018-11-28T22:55:56.419Z,39.23
2018-11-28T22:58:31.049Z,37.48
2018-11-28T23:01:10.326Z,38.83
2018-11-28T23:03:44.588Z,41.55
2018-11-28T23:06:19.744Z,40.95
2018-11-28T23:08:54.348Z,47.62
2018-11-28T23:11:28.792Z,33.92
2018-11-28T23:14:03.050Z,40.03
2018-11-28T23:16:37.387Z,35.35
2018-11-28T23:19:11.831Z,36.75
2018-11-28T23:21:50.101Z,38.25
2018-11-28T23:24:20.666Z,34.40
2018-11-28T23:26:54.983Z,34.58
2018-11-28T23:29:29.432Z,42.67
2018-11-28T23:32:04.102Z,29.75
2018-11-28T23:34:39.306Z,33.48
2018-11-28T23:37:13.678Z,32.90
2018-11-28T23:39:48.645Z,34.15
2018-11-28T23:42:22.976Z,28.32
2018-11-28T23:44:57.423Z,31.62
2018-11-28T23:47:32.944Z,34.63
2018-11-28T23:50:09.947Z,31.15
2018-11-28T23:52:44.353Z,32.45
2018-11-28T23:55:24.375Z,31.90
2018-11-28T23:57:58.988Z,30.77
